Time;durP1;ratioP1;P1;durP2;ratioP2;P2;SDS_P1;SDS_P2;PMS_P1;PMS_P2;Temp;Humidity;BMP_temperature;BMP_pressure;BME280_temperature;BME280_humidity;BME280_pressure;Samples;Min_cycle;Max_cycle;Signal;HPM_P1;HPM_P2
2022/01/17 00:01:14;;;;;;;1999.90;999.90;;;;;;;1.82;100.00;162883.50;4987466;28;20058;-68
2022/01/17 00:03:41;;;;;;;1999.90;999.90;;;;;;;1.67;100.00;162843.78;4984700;28;20050;-68
2022/01/17 00:06:09;;;;;;;1999.90;999.90;;;;;;;1.52;100.00;162804.09;4982766;28;20055;-68
2022/01/17 00:08:41;;;;;;;1999.90;999.90;;;;;;;1.56;100.00;162815.06;4985200;28;20082;-68
2022/01/17 00:11:09;;;;;;;1999.90;999.90;;;;;;;1.69;100.00;162847.91;4981792;28;20181;-68
2022/01/17 00:13:35;;;;;;;1999.90;999.90;;;;;;;1.62;100.00;162830.06;4987466;28;20339;-69
2022/01/17 00:21:06;;;;;;;1999.90;999.90;;;;;;;1.82;100.00;162883.50;4990562;28;20104;-68
2022/01/17 00:23:33;;;;;;;1999.90;999.90;;;;;;;1.94;100.00;162916.31;4988052;28;20097;-68
2022/01/17 00:26:00;;;;;;;1999.90;999.90;;;;;;;1.93;100.00;162913.56;4990299;28;20050;-68
2022/01/17 00:28:26;;;;;;;1999.90;999.90;;;;;;;2.01;100.00;162934.16;4991159;28;20090;-69
2022/01/17 00:30:53;;;;;;;1999.90;999.90;;;;;;;2.20;100.00;162984.78;4988254;28;20088;-69
2022/01/17 00:33:19;;;;;;;1999.90;999.90;;;;;;;2.20;100.00;162983.41;4989825;28;20058;-69
2022/01/17 00:35:46;;;;;;;1999.90;999.90;;;;;;;1.89;100.00;162902.66;4987803;28;20082;-69
2022/01/17 00:38:12;;;;;;;1999.90;999.90;;;;;;;1.90;100.00;162904.00;4988951;28;20054;-69
2022/01/17 00:40:41;;;;;;;1999.90;999.90;;;;;;;1.95;100.00;162917.72;4986817;28;20108;-68
2022/01/17 00:43:09;;;;;;;1999.90;999.90;;;;;;;1.82;100.00;162883.50;4991084;28;20050;-68
2022/01/17 00:45:38;;;;;;;1999.90;999.90;;;;;;;2.02;100.00;162935.50;4990214;28;20074;-68
2022/01/17 00:48:05;;;;;;;1999.90;999.90;;;;;;;1.88;100.00;162899.91;4989137;28;20050;-69
2022/01/17 00:50:32;;;;;;;1999.90;999.90;;;;;;;2.14;100.00;162967.00;4989332;28;20497;-68
2022/01/17 00:53:03;;;;;;;1999.90;999.90;;;;;;;2.16;100.00;162972.47;4988814;28;20427;-67
2022/01/17 00:55:30;;;;;;;1999.90;999.90;;;;;;;2.00;100.00;162931.41;4980425;28;20104;-67
2022/01/17 00:57:57;;;;;;;1999.90;999.90;;;;;;;2.00;100.00;162930.06;4989823;28;20089;-67
2022/01/17 01:00:24;;;;;;;1999.90;999.90;;;;;;;2.08;100.00;162953.31;4989250;28;20051;-67
2022/01/17 01:02:51;;;;;;;1999.90;999.90;;;;;;;2.31;100.00;163013.56;4985164;28;20332;-67
2022/01/17 01:05:17;;;;;;;1999.90;999.90;;;;;;;2.17;99.49;162975.22;4989694;28;20050;-68
2022/01/17 01:07:44;;;;;;;1999.90;999.90;;;;;;;2.28;99.15;163005.34;4989248;28;20525;-67
2022/01/17 01:10:13;;;;;;;1999.90;999.90;;;;;;;2.17;99.46;162975.22;4987656;28;20155;-68
2022/01/17 01:12:42;;;;;;;1999.90;999.90;;;;;;;2.24;99.79;162994.38;4983569;28;20089;-68
2022/01/17 01:15:23;;;;;;;1999.90;999.90;;;;;;;2.66;98.09;163106.69;4988465;28;20359;-68
2022/01/17 01:17:55;;;;;;;1999.90;999.90;;;;;;;2.54;96.93;163075.16;4988739;28;20085;-69
2022/01/17 01:20:57;;;;;;;1999.90;999.90;;;;;;;2.33;97.81;163019.03;4988672;28;20050;-68
2022/01/17 01:28:46;;;;;;;1999.90;999.90;;;;;;;2.22;98.63;162988.88;4985212;28;20058;-67
2022/01/17 01:31:22;;;;;;;1999.90;999.90;;;;;;;2.15;98.58;162971.09;4988414;28;20312;-68
2022/01/17 01:33:54;;;;;;;1999.90;999.90;;;;;;;2.10;98.86;162958.78;4990114;28;20341;-68
2022/01/17 01:36:26;;;;;;;;;;;;;;;2.03;99.29;162938.25;4991336;28;20046;-68
2022/01/17 01:38:54;;;;;;;1999.90;999.90;;;;;;;2.02;98.96;162935.50;4989655;28;19976;-68
2022/01/17 01:41:20;;;;;;;1999.90;999.90;;;;;;;2.01;99.33;162934.16;4989303;28;20089;-68
2022/01/17 01:43:47;;;;;;;1999.90;999.90;;;;;;;2.06;98.99;162947.81;4985783;28;20105;-68
2022/01/17 01:46:18;;;;;;;1999.90;999.90;;;;;;;2.11;99.78;162961.53;4989155;28;20054;-67
2022/01/17 01:48:46;;;;;;;1999.90;999.90;;;;;;;2.17;99.93;162975.22;4981068;28;20046;-67
2022/01/17 01:51:13;;;;;;;1999.90;999.90;;;;;;;2.18;99.45;162977.97;4990291;28;20383;-67
2022/01/17 01:53:39;;;;;;;1999.90;999.90;;;;;;;2.13;99.73;162964.25;4989525;28;20124;-67
2022/01/17 01:56:06;;;;;;;1999.90;999.90;;;;;;;2.20;99.29;162983.41;4987758;28;20055;-67
2022/01/17 01:58:32;;;;;;;1999.90;999.90;;;;;;;2.11;100.00;162960.13;4986570;28;20078;-67
2022/01/17 02:01:00;;;;;;;1999.90;999.90;;;;;;;2.18;99.46;162977.97;4980984;28;20137;-67
2022/01/17 02:03:27;;;;;;;1999.90;999.90;;;;;;;2.20;99.75;162983.41;4988775;28;20055;-67
2022/01/17 02:05:54;;;;;;;1999.90;999.90;;;;;;;2.52;98.49;163068.38;4987833;28;20046;-67
2022/01/17 02:08:20;;;;;;;1999.90;999.90;;;;;;;2.47;98.41;163057.38;4984122;28;20046;-67
2022/01/17 02:10:47;;;;;;;1999.90;999.90;;;;;;;2.26;99.08;162999.84;4980133;28;20074;-68
2022/01/17 02:13:13;;;;;;;1999.90;999.90;;;;;;;2.31;99.46;163013.56;4988240;28;20046;-67
2022/01/17 02:15:43;;;;;;;1999.90;999.90;;;;;;;2.21;99.48;162986.19;4989115;28;20050;-68
2022/01/17 02:18:12;;;;;;;1999.90;999.90;;;;;;;2.23;99.28;162993.03;4989890;28;20050;-67
2022/01/17 02:20:44;;;;;;;1999.90;999.90;;;;;;;2.40;99.29;163038.22;4987653;28;20077;-67
2022/01/17 02:23:13;;;;;;;1999.90;999.90;;;;;;;2.27;99.12;163002.59;4997925;28;20088;-67
2022/01/17 02:25:40;;;;;;;1999.90;999.90;;;;;;;2.36;99.11;163027.25;4987274;28;20088;-67
2022/01/17 02:28:07;;;;;;;1999.90;999.90;;;;;;;2.47;98.68;163057.38;4986722;28;20097;-67
2022/01/17 02:30:33;;;;;;;1999.90;999.90;;;;;;;2.44;98.72;163049.19;4987897;28;20054;-67
2022/01/17 02:33:02;;;;;;;1999.90;999.90;;;;;;;2.55;98.60;163077.94;4988361;28;20436;-67
2022/01/17 02:35:29;;;;;;;1999.90;999.90;;;;;;;2.45;99.38;163051.88;4988267;28;20050;-67
2022/01/17 02:37:56;;;;;;;1999.90;999.90;;;;;;;2.35;98.92;163024.50;4986767;28;20407;-67
2022/01/17 02:40:24;;;;;;;1999.90;999.90;;;;;;;2.38;98.87;163032.75;4987115;28;20137;-67
2022/01/17 02:43:01;;;;;;;1999.90;999.90;;;;;;;2.35;99.09;163023.13;4986944;28;20081;-67
2022/01/17 02:46:24;;;;;;;1999.90;999.90;;;;;;;2.29;99.13;163008.06;4988406;28;20089;-67
2022/01/17 02:48:27;;;;;;;1999.90;999.90;;;;;;;2.40;98.39;163038.22;4983150;28;20054;-67
2022/01/17 02:50:54;;;;;;;1999.90;999.90;;;;;;;2.45;98.97;163051.88;4988655;28;20081;-67
2022/01/17 02:53:22;;;;;;;1999.90;999.90;;;;;;;2.41;98.29;163040.97;4987164;28;20073;-68
2022/01/17 02:55:57;;;;;;;1999.90;999.90;;;;;;;2.29;99.19;163008.06;4988699;28;20073;-68
2022/01/17 02:58:26;;;;;;;1999.90;999.90;;;;;;;2.28;99.60;163006.72;4987127;28;20077;-67
2022/01/17 03:00:55;;;;;;;1999.90;999.90;;;;;;;2.36;99.35;163025.88;4982710;28;20089;-67
2022/01/17 03:03:28;;;;;;;1999.90;999.90;;;;;;;2.45;99.16;163051.88;4984526;28;20043;-68
2022/01/17 03:05:56;;;;;;;1999.90;999.90;;;;;;;2.37;99.23;163030.00;4979901;28;20077;-68
2022/01/17 03:08:25;;;;;;;1999.90;999.90;;;;;;;2.26;99.46;162999.84;4976254;28;20081;-68
2022/01/17 03:10:53;;;;;;;1999.90;999.90;;;;;;;2.32;99.63;163016.28;4986248;28;20136;-67
2022/01/17 03:13:21;;;;;;;1999.90;999.90;;;;;;;2.50;99.20;163062.84;4981719;28;20059;-68
2022/01/17 03:15:56;;;;;;;1999.90;999.90;;;;;;;2.28;100.00;163005.34;4987320;28;20042;-68
2022/01/17 03:18:24;;;;;;;1999.90;999.90;;;;;;;2.36;99.58;163025.88;4985741;28;20414;-67
2022/01/17 03:20:51;;;;;;;1999.90;999.90;;;;;;;2.31;99.69;163012.16;4980281;28;20050;-69
2022/01/17 03:23:18;;;;;;;1999.90;999.90;;;;;;;2.35;98.94;163024.50;4985397;28;20098;-66
2022/01/17 03:25:45;;;;;;;1999.90;999.90;;;;;;;2.28;99.21;163005.34;4980145;28;20082;-67
2022/01/17 03:28:12;;;;;;;1999.90;999.90;;;;;;;2.46;98.86;163053.28;4980064;28;20065;-67
2022/01/17 03:30:38;;;;;;;1999.90;999.90;;;;;;;2.46;98.70;163054.63;4980199;28;20105;-67
2022/01/17 03:33:08;;;;;;;1999.90;999.90;;;;;;;2.44;98.79;163049.19;4987170;28;20054;-67
2022/01/17 03:35:38;;;;;;;1999.90;999.90;;;;;;;2.42;98.78;163043.66;4977891;28;20123;-68
2022/01/17 03:38:09;;;;;;;1999.90;999.90;;;;;;;2.38;99.04;163032.75;4989363;28;20228;-68
2022/01/17 03:40:39;;;;;;;1999.90;999.90;;;;;;;2.51;98.76;163066.97;4986848;28;20529;-67
2022/01/17 03:43:06;;;;;;;1999.90;999.90;;;;;;;2.66;97.71;163106.69;4986206;28;20182;-67
2022/01/17 03:45:33;;;;;;;1999.90;999.90;;;;;;;2.65;98.15;163103.97;4978782;28;20390;-68
2022/01/17 03:47:59;;;;;;;1999.90;999.90;;;;;;;2.47;98.94;163057.38;4976959;28;20050;-67
2022/01/17 03:50:27;;;;;;;1999.90;999.90;;;;;;;2.49;98.64;163060.09;4980597;28;20136;-67
2022/01/17 03:52:55;;;;;;;1999.90;999.90;;;;;;;2.55;98.71;163076.56;4990168;28;20059;-68
2022/01/17 03:55:22;;;;;;;1999.90;999.90;;;;;;;2.66;98.69;163105.34;4989883;28;20086;-67
2022/01/17 03:57:49;;;;;;;1999.90;999.90;;;;;;;2.59;98.09;163087.50;4991211;28;20108;-68
2022/01/17 04:00:22;;;;;;;1999.90;999.90;;;;;;;2.69;98.04;163114.91;4986786;28;20079;-68
2022/01/17 04:02:49;;;;;;;1999.90;999.90;;;;;;;2.68;97.98;163112.19;4985554;28;20406;-68
2022/01/17 04:05:17;;;;;;;1999.90;999.90;;;;;;;2.55;98.89;163077.94;4980817;28;20050;-67
2022/01/17 04:07:44;;;;;;;1999.90;999.90;;;;;;;2.68;98.06;163110.78;4990660;28;20571;-68
2022/01/17 04:10:12;;;;;;;1999.90;999.90;;;;;;;2.66;98.20;163106.69;4989094;28;20105;-68
2022/01/17 04:12:40;;;;;;;1999.90;999.90;;;;;;;2.57;98.37;163082.03;4989919;28;20085;-67
2022/01/17 04:15:08;;;;;;;1999.90;999.90;;;;;;;2.86;97.11;163158.72;4987800;28;20436;-68
2022/01/17 04:17:35;;;;;;;1999.90;999.90;;;;;;;2.62;97.87;163095.72;4987733;28;20078;-68
2022/01/17 04:20:08;;;;;;;1999.90;999.90;;;;;;;2.69;98.35;163114.91;4992025;28;20136;-67
2022/01/17 04:22:41;;;;;;;1999.90;999.90;;;;;;;2.93;97.15;163177.91;4982624;28;20054;-68
2022/01/17 04:25:08;;;;;;;1999.90;999.90;;;;;;;3.03;96.55;163205.31;4988654;28;20050;-67
2022/01/17 04:27:35;;;;;;;1999.90;999.90;;;;;;;2.82;97.08;163150.50;4983265;28;20054;-68
2022/01/17 04:30:05;;;;;;;1999.90;999.90;;;;;;;2.74;97.73;163127.22;4988469;28;20085;-68
2022/01/17 04:32:33;;;;;;;1999.90;999.90;;;;;;;2.82;97.60;163150.50;4988731;28;20047;-67
2022/01/17 04:35:00;;;;;;;1999.90;999.90;;;;;;;2.87;97.32;163161.47;4982133;28;20085;-68
2022/01/17 04:37:27;;;;;;;1999.90;999.90;;;;;;;2.89;97.35;163168.34;4979519;28;20058;-68
2022/01/17 04:39:53;;;;;;;1999.90;999.90;;;;;;;2.82;97.53;163150.50;4989661;28;20422;-67
2022/01/17 04:42:27;;;;;;;1999.90;999.90;;;;;;;2.63;98.23;163098.47;4989939;28;20093;-67
2022/01/17 04:45:07;;;;;;;1999.90;999.90;;;;;;;2.80;97.77;163145.06;4986822;28;20419;-68
2022/01/17 04:47:38;;;;;;;1999.90;999.90;;;;;;;2.85;97.78;163156.03;4983662;28;20043;-67
2022/01/17 04:50:21;;;;;;;1999.90;999.90;;;;;;;2.81;97.98;163147.81;4989422;28;20054;-67
2022/01/17 04:52:49;;;;;;;1999.90;999.90;;;;;;;2.85;97.79;163156.03;4986910;28;20082;-67
2022/01/17 04:55:18;;;;;;;1999.90;999.90;;;;;;;2.66;98.39;163105.34;4988326;28;20128;-67
2022/01/17 04:57:46;;;;;;;1999.90;999.90;;;;;;;2.82;97.72;163150.50;4985422;28;20086;-68
2022/01/17 05:00:16;;;;;;;1999.90;999.90;;;;;;;2.77;97.79;163136.84;4988271;28;20054;-67
2022/01/17 05:02:44;;;;;;;1999.90;999.90;;;;;;;2.73;98.11;163125.88;4984686;28;20148;-67
2022/01/17 05:05:12;;;;;;;1999.90;999.90;;;;;;;2.76;97.79;163132.72;4988299;28;20454;-67
2022/01/17 05:07:39;;;;;;;1999.90;999.90;;;;;;;2.71;98.66;163120.41;4986521;28;20073;-67
2022/01/17 05:10:10;;;;;;;1999.90;999.90;;;;;;;2.61;98.98;163094.34;4988431;28;20062;-68
2022/01/17 05:12:37;;;;;;;1999.90;999.90;;;;;;;2.63;99.06;163098.47;4985085;28;20145;-68
2022/01/17 05:15:16;;;;;;;1999.90;999.90;;;;;;;2.65;99.21;163103.97;4983867;28;20338;-68
2022/01/17 05:17:55;;;;;;;1999.90;999.90;;;;;;;2.78;98.63;163139.59;4983687;28;20088;-68
2022/01/17 05:20:22;;;;;;;1999.90;999.90;;;;;;;2.99;97.38;163194.34;4986840;28;20335;-67
2022/01/17 05:22:49;;;;;;;1999.90;999.90;;;;;;;2.75;98.19;163129.97;4988659;28;20050;-67
2022/01/17 05:25:16;;;;;;;1999.90;999.90;;;;;;;2.78;98.13;163139.59;4986778;28;20749;-67
2022/01/17 05:27:43;;;;;;;1999.90;999.90;;;;;;;2.80;97.93;163145.06;4982790;28;20181;-67
2022/01/17 05:30:13;;;;;;;1999.90;999.90;;;;;;;2.77;98.09;163135.44;4986651;28;20078;-67
2022/01/17 05:32:40;;;;;;;1999.90;999.90;;;;;;;2.68;98.48;163112.19;4988557;28;20046;-68
2022/01/17 05:35:08;;;;;;;1999.90;999.90;;;;;;;2.87;97.86;163161.47;4989240;28;20351;-67
2022/01/17 05:37:35;;;;;;;1999.90;999.90;;;;;;;3.02;97.39;163201.22;4987967;28;20077;-67
2022/01/17 05:40:04;;;;;;;1999.90;999.90;;;;;;;2.96;97.02;163186.13;4981767;28;20114;-67
2022/01/17 05:42:31;;;;;;;1999.90;999.90;;;;;;;2.85;97.72;163157.38;4987505;28;20100;-67
2022/01/17 05:44:58;;;;;;;1999.90;999.90;;;;;;;2.96;97.09;163187.53;4987348;28;20081;-67
2022/01/17 05:47:24;;;;;;;1999.90;999.90;;;;;;;2.99;96.83;163195.75;4987117;28;20449;-68
2022/01/17 05:49:51;;;;;;;1999.90;999.90;;;;;;;2.91;97.72;163172.47;4988733;28;20096;-67
2022/01/17 05:52:18;;;;;;;1999.90;999.90;;;;;;;2.89;97.66;163166.94;4988580;28;20352;-67
2022/01/17 05:54:45;;;;;;;1999.90;999.90;;;;;;;2.96;97.32;163186.13;4988249;28;20039;-68
2022/01/17 05:57:12;;;;;;;1999.90;999.90;;;;;;;3.11;97.10;163227.28;4987812;28;20050;-67
2022/01/17 05:59:39;;;;;;;1999.90;999.90;;;;;;;2.92;97.39;163175.22;4989004;28;20079;-67
2022/01/17 06:02:06;;;;;;;1999.90;999.90;;;;;;;3.02;97.09;163202.56;4988436;28;20068;-68
2022/01/17 06:04:33;;;;;;;1999.90;999.90;;;;;;;3.10;96.62;163224.50;4979147;28;20104;-68
2022/01/17 06:06:59;;;;;;;1999.90;999.90;;;;;;;3.01;97.32;163199.88;4988131;28;20109;-68
2022/01/17 06:09:26;;;;;;;1999.90;999.90;;;;;;;3.23;96.04;163257.38;4985050;28;20108;-68
2022/01/17 06:11:54;;;;;;;1999.90;999.90;;;;;;;3.31;95.99;163279.34;4997348;28;20050;-67
2022/01/17 06:14:21;;;;;;;1999.90;999.90;;;;;;;3.14;96.74;163235.50;4989183;28;20084;-67
2022/01/17 06:16:48;;;;;;;1999.90;999.90;;;;;;;3.03;96.79;163205.31;4987846;28;20444;-67
2022/01/17 06:19:15;;;;;;;1999.90;999.90;;;;;;;3.07;97.09;163214.94;4988386;28;20332;-67
2022/01/17 06:21:43;;;;;;;1999.90;999.90;;;;;;;3.19;96.41;163247.81;4986420;28;20089;-67
2022/01/17 06:24:15;;;;;;;1999.90;999.90;;;;;;;3.36;96.03;163293.00;4984190;28;20435;-67
2022/01/17 06:26:43;;;;;;;1999.90;999.90;;;;;;;3.44;95.28;163314.97;4987249;28;20081;-67
2022/01/17 06:29:11;;;;;;;1999.90;999.90;;;;;;;3.55;95.06;163342.38;4987885;28;20074;-67
2022/01/17 06:31:39;;;;;;;1999.90;999.90;;;;;;;3.30;96.06;163276.56;4987584;28;20077;-66
2022/01/17 06:34:06;;;;;;;1999.90;999.90;;;;;;;3.23;95.81;163257.38;4983374;28;20050;-67
2022/01/17 06:36:32;;;;;;;1999.90;999.90;;;;;;;3.35;95.69;163290.31;4980101;28;20143;-67
2022/01/17 06:39:00;;;;;;;1999.90;999.90;;;;;;;3.37;96.10;163295.78;4985676;28;20074;-66
2022/01/17 06:41:27;;;;;;;1999.90;999.90;;;;;;;3.32;96.02;163282.03;4987040;28;20077;-67
2022/01/17 06:43:54;;;;;;;1999.90;999.90;;;;;;;3.27;95.90;163269.72;4986030;28;20054;-67
2022/01/17 06:46:21;;;;;;;1999.90;999.90;;;;;;;3.07;96.97;163216.28;4989269;28;20051;-67
2022/01/17 06:48:48;;;;;;;1999.90;999.90;;;;;;;3.07;97.42;163216.28;4987481;28;20060;-67
2022/01/17 06:51:15;;;;;;;1999.90;999.90;;;;;;;3.28;96.78;163271.13;4984200;28;20081;-67
2022/01/17 06:53:42;;;;;;;1999.90;999.90;;;;;;;3.32;97.29;163282.03;4985517;28;20084;-67
2022/01/17 06:56:09;;;;;;;1999.90;999.90;;;;;;;3.14;97.25;163235.50;4987204;28;20074;-67
2022/01/17 06:58:37;;;;;;;1999.90;999.90;;;;;;;3.05;97.85;163209.44;4980322;28;20439;-67
2022/01/17 07:01:04;;;;;;;1999.90;999.90;;;;;;;3.10;97.75;163224.50;4986949;28;20298;-67
2022/01/17 07:03:32;;;;;;;1999.90;999.90;;;;;;;3.02;98.49;163201.22;4985441;28;20343;-68
2022/01/17 07:05:59;;;;;;;1999.90;999.90;;;;;;;3.03;98.04;163205.31;4987112;28;20089;-68
2022/01/17 07:08:26;;;;;;;1999.90;999.90;;;;;;;2.99;97.66;163194.34;4984883;28;20347;-68
2022/01/17 07:10:52;;;;;;;1999.90;999.90;;;;;;;3.11;97.74;163225.88;4985204;28;20049;-68
2022/01/17 07:13:19;;;;;;;1999.90;999.90;;;;;;;3.21;97.58;163251.91;4987298;28;20062;-68
2022/01/17 07:15:46;;;;;;;1999.90;999.90;;;;;;;2.98;98.78;163191.66;4986095;28;20426;-68
2022/01/17 07:18:13;;;;;;;1999.90;999.90;;;;;;;3.12;98.79;163228.63;4978886;28;20439;-68
2022/01/17 07:20:45;;;;;;;1999.90;999.90;;;;;;;3.14;99.25;163235.50;4977274;28;20047;-68
2022/01/17 07:23:11;;;;;;;1999.90;999.90;;;;;;;2.97;99.34;163188.88;4982998;28;20094;-68
2022/01/17 07:25:38;;;;;;;1999.90;999.90;;;;;;;3.24;99.09;163261.50;4986323;28;20097;-68
2022/01/17 07:28:09;;;;;;;1999.90;999.90;;;;;;;3.14;98.82;163234.09;4987898;28;20057;-68
2022/01/17 07:30:37;;;;;;;1999.90;999.90;;;;;;;3.20;99.11;163249.16;4985541;28;20070;-68
2022/01/17 07:33:05;;;;;;;1999.90;999.90;;;;;;;3.16;99.06;163239.59;4976147;28;20105;-68
2022/01/17 07:35:33;;;;;;;1999.90;999.90;;;;;;;3.16;99.10;163240.94;4984908;28;20454;-68
2022/01/17 07:38:00;;;;;;;1999.90;999.90;;;;;;;3.01;99.61;163199.88;4983905;28;20104;-68
2022/01/17 07:40:26;;;;;;;1999.90;999.90;;;;;;;3.03;99.39;163203.97;4983611;28;20050;-68
2022/01/17 07:42:53;;;;;;;1999.90;999.90;;;;;;;3.12;99.63;163228.63;4988205;28;20050;-68
2022/01/17 07:45:20;;;;;;;1999.90;999.90;;;;;;;3.14;100.00;163234.09;4986095;28;20085;-68
2022/01/17 07:50:20;;;;;;;1999.90;999.90;;;;;;;3.26;98.60;163267.00;4980433;28;20051;-68
2022/01/17 07:52:48;;;;;;;1999.90;999.90;;;;;;;3.42;98.08;163309.47;4984326;28;20077;-68
2022/01/17 07:55:15;;;;;;;1999.90;999.90;;;;;;;3.32;97.96;163283.44;4980178;28;20042;-68
2022/01/17 07:57:42;;;;;;;1999.90;999.90;;;;;;;3.35;97.71;163290.31;4974293;28;20082;-68
2022/01/17 08:00:16;;;;;;;1999.90;999.90;;;;;;;3.23;97.75;163257.38;4985147;28;20081;-68
2022/01/17 08:02:42;;;;;;;1999.90;999.90;;;;;;;3.20;97.74;163249.16;4986658;28;20513;-68
2022/01/17 08:05:14;;;;;;;1999.90;999.90;;;;;;;3.24;98.19;163260.16;4986383;28;20052;-68
2022/01/17 08:07:41;;;;;;;1999.90;999.90;;;;;;;3.28;97.37;163272.47;4986811;28;20128;-69
2022/01/17 08:10:12;;;;;;;1999.90;999.90;;;;;;;3.31;97.44;163279.34;4987612;28;20522;-68
2022/01/17 08:12:43;;;;;;;1999.90;999.90;;;;;;;3.38;97.11;163298.53;4986374;28;20065;-68
2022/01/17 08:15:11;;;;;;;1999.90;999.90;;;;;;;3.27;97.11;163269.72;4983312;28;20109;-68
2022/01/17 08:17:37;;;;;;;1999.90;999.90;;;;;;;3.28;96.84;163272.47;4986945;28;20086;-69
2022/01/17 08:20:05;;;;;;;1999.90;999.90;;;;;;;3.41;96.64;163306.75;4980263;28;20046;-69
2022/01/17 08:22:32;;;;;;;1999.90;999.90;;;;;;;3.34;96.51;163287.56;4983662;28;20101;-68
2022/01/17 08:24:59;;;;;;;1999.90;999.90;;;;;;;3.36;96.87;163293.00;4987602;28;20553;-67
2022/01/17 08:27:26;;;;;;;1999.90;999.90;;;;;;;3.48;96.60;163325.94;4979390;28;20336;-67
2022/01/17 08:29:54;;;;;;;1999.90;999.90;;;;;;;3.44;96.04;163314.97;4985864;28;20055;-70
2022/01/17 08:32:41;;;;;;;1999.90;999.90;;;;;;;3.48;96.17;163324.53;4985561;28;20168;-68
2022/01/17 08:35:08;;;;;;;1999.90;999.90;;;;;;;3.53;95.96;163338.28;4985701;28;20133;-69
2022/01/17 08:37:35;;;;;;;1999.90;999.90;;;;;;;3.42;96.46;163309.47;4987199;28;20061;-68
2022/01/17 08:40:04;;;;;;;1999.90;999.90;;;;;;;3.62;95.79;163361.59;4986814;28;20439;-68
2022/01/17 08:42:33;;;;;;;1999.90;999.90;;;;;;;3.69;95.22;163380.72;4989636;28;20140;-68
2022/01/17 08:45:00;;;;;;;1999.90;999.90;;;;;;;3.79;95.39;163408.16;4989155;28;20058;-68
2022/01/17 08:47:26;;;;;;;1999.90;999.90;;;;;;;3.78;95.35;163405.44;4988514;28;20443;-68
2022/01/17 08:49:53;;;;;;;1999.90;999.90;;;;;;;3.66;95.21;163373.91;4988678;28;20100;-68
2022/01/17 08:52:20;;;;;;;1999.90;999.90;;;;;;;3.70;95.60;163384.84;4988198;28;20097;-68
2022/01/17 08:54:47;;;;;;;1999.90;999.90;;;;;;;3.68;96.05;163378.03;4989621;28;20050;-68
2022/01/17 08:57:14;;;;;;;1999.90;999.90;;;;;;;3.64;97.14;163368.41;4983458;28;20101;-68
2022/01/17 08:59:42;;;;;;;1999.90;999.90;;;;;;;3.50;98.08;163331.41;4980499;28;20434;-68
2022/01/17 09:02:09;;;;;;;1999.90;999.90;;;;;;;3.41;98.75;163306.75;4977890;28;20502;-68
2022/01/17 09:04:40;;;;;;;1999.90;999.90;;;;;;;3.37;100.00;163294.41;5003015;28;20085;-68
2022/01/17 09:07:12;;;;;;;1999.90;999.90;;;;;;;3.27;100.00;163268.38;4989204;28;20057;-68
2022/01/17 09:09:40;;;;;;;1999.90;999.90;;;;;;;3.14;100.00;163235.50;4989517;28;20509;-68
2022/01/17 09:12:08;;;;;;;1999.90;999.90;;;;;;;3.14;100.00;163234.09;4985066;28;20086;-68
2022/01/17 09:14:35;;;;;;;1999.90;999.90;;;;;;;3.17;100.00;163243.72;4990475;28;20092;-68
2022/01/17 09:17:04;;;;;;;1999.90;999.90;;;;;;;3.46;100.00;163319.09;4986995;28;20069;-68
2022/01/17 09:19:31;;;;;;;1999.90;999.90;;;;;;;3.40;100.00;163302.66;4987155;28;20109;-68
2022/01/17 09:21:58;;;;;;;1999.90;999.90;;;;;;;3.23;100.00;163258.78;4987815;28;20089;-68
2022/01/17 09:24:25;;;;;;;1999.90;999.90;;;;;;;2.99;100.00;163194.34;4989601;28;20465;-68
2022/01/17 09:26:51;;;;;;;1999.90;999.90;;;;;;;3.07;100.00;163216.28;4990766;28;20054;-68
2022/01/17 09:29:18;;;;;;;1999.90;999.90;;;;;;;2.88;100.00;163164.25;4990002;28;20447;-68
2022/01/17 09:31:45;;;;;;;1999.90;999.90;;;;;;;2.85;100.00;163156.03;4987037;28;20065;-68
2022/01/17 09:34:12;;;;;;;1999.90;999.90;;;;;;;2.82;100.00;163150.50;4983256;28;20057;-68
2022/01/17 09:36:39;;;;;;;1999.90;999.90;;;;;;;2.81;100.00;163147.81;4984562;28;20339;-68
2022/01/17 09:39:07;;;;;;;1999.90;999.90;;;;;;;2.73;100.00;163125.88;4989172;28;20069;-68
2022/01/17 09:41:34;;;;;;;1999.90;999.90;;;;;;;2.80;100.00;163145.06;4989093;28;20116;-69
2022/01/17 09:44:02;;;;;;;1999.90;999.90;;;;;;;3.03;100.00;163205.31;4989902;28;20054;-68
2022/01/17 09:46:34;;;;;;;1999.90;999.90;;;;;;;2.97;100.00;163188.88;4989299;28;20500;-68
2022/01/17 09:49:13;;;;;;;1999.90;999.90;;;;;;;3.17;100.00;163243.72;4986923;28;20185;-68
2022/01/17 09:54:29;;;;;;;1999.90;999.90;;;;;;;3.28;100.00;163271.13;4987347;28;20125;-68
2022/01/17 09:56:57;;;;;;;1999.90;999.90;;;;;;;3.35;100.00;163291.66;4988839;28;20159;-67
2022/01/17 09:59:24;;;;;;;1999.90;999.90;;;;;;;3.52;100.00;163336.88;4988974;28;20050;-68
2022/01/17 10:01:51;;;;;;;1999.90;999.90;;;;;;;3.61;100.00;163358.81;4989089;28;20082;-68
2022/01/17 10:04:18;;;;;;;1999.90;999.90;;;;;;;3.47;100.00;163323.19;4988441;28;20137;-68
2022/01/17 10:06:55;;;;;;;1999.90;999.90;;;;;;;3.59;100.00;163353.31;4985962;28;20124;-68
2022/01/17 10:09:25;;;;;;;1999.90;999.90;;;;;;;3.53;100.00;163338.28;4982593;28;20061;-68
2022/01/17 10:12:17;;;;;;;1999.90;999.90;;;;;;;3.61;100.00;163360.19;4999888;28;20072;-68
2022/01/17 10:14:58;;;;;;;1999.90;999.90;;;;;;;3.62;100.00;163361.59;4988529;28;20054;-68
2022/01/17 10:17:42;;;;;;;1999.90;999.90;;;;;;;3.62;100.00;163361.59;4980515;28;20101;-68
2022/01/17 10:20:13;;;;;;;1999.90;999.90;;;;;;;3.65;99.66;163369.81;4976093;28;20104;-68
2022/01/17 10:22:59;;;;;;;1999.90;999.90;;;;;;;3.86;99.07;163426.00;4987387;28;20054;-68
2022/01/17 10:25:40;;;;;;;1999.90;999.90;;;;;;;4.12;97.85;163495.91;4987903;28;20340;-68
2022/01/17 10:34:52;;;;;;;1999.90;999.90;;;;;;;3.89;98.27;163434.22;4983736;28;20385;-68
2022/01/17 10:36:43;;;;;;;1999.90;999.90;;;;;;;4.00;98.48;163463.00;4985172;28;20043;-68
2022/01/17 10:39:10;;;;;;;1999.90;999.90;;;;;;;3.85;99.60;163423.25;4985066;28;20105;-68
2022/01/17 10:41:37;;;;;;;1999.90;999.90;;;;;;;3.84;99.55;163421.88;4987378;28;20509;-68
2022/01/17 10:44:05;;;;;;;1999.90;999.90;;;;;;;3.77;99.93;163402.69;4986865;28;20097;-69
2022/01/17 10:46:33;;;;;;;1999.90;999.90;;;;;;;3.77;99.94;163402.69;4988821;28;20046;-68
2022/01/17 10:49:20;;;;;;;1999.90;999.90;;;;;;;3.66;100.00;163373.91;4984035;28;20875;-68
2022/01/17 10:51:47;;;;;;;1999.90;999.90;;;;;;;3.72;100.00;163388.97;4985449;28;20074;-68
2022/01/17 10:54:17;;;;;;;1999.90;999.90;;;;;;;3.71;100.00;163386.25;4982946;28;20101;-68
2022/01/17 10:56:53;;;;;;;1999.90;999.90;;;;;;;3.70;100.00;163383.50;4985801;28;20513;-68
2022/01/17 10:59:27;;;;;;;1999.90;999.90;;;;;;;3.69;100.00;163382.13;4982262;28;20086;-68
2022/01/17 11:01:54;;;;;;;1999.90;999.90;;;;;;;3.81;100.00;163413.66;4986670;28;20050;-69
2022/01/17 11:04:39;;;;;;;1999.90;999.90;;;;;;;3.94;99.84;163446.56;4978822;28;20387;-68
2022/01/17 11:07:08;;;;;;;1999.90;999.90;;;;;;;3.72;100.00;163388.97;4988173;28;20073;-68
2022/01/17 11:09:46;;;;;;;1999.90;999.90;;;;;;;3.90;99.75;163435.56;4985097;28;20054;-68
2022/01/17 11:12:16;;;;;;;1999.90;999.90;;;;;;;4.35;97.57;163557.63;4973478;28;20073;-68
2022/01/17 11:14:45;;;;;;;1999.90;999.90;;;;;;;4.54;97.02;163606.97;4984404;28;20050;-68
2022/01/17 11:17:16;;;;;;;1999.90;999.90;;;;;;;4.15;98.15;163502.75;4984764;28;20093;-69
2022/01/17 11:20:03;;;;;;;1999.90;999.90;;;;;;;4.05;98.46;163478.09;4981780;28;20112;-68
2022/01/17 11:22:31;;;;;;;1999.90;999.90;;;;;;;4.19;97.36;163513.75;4979274;28;20104;-68